createdAt,value
2018-02-13T00:02:00.422Z,28.00
2018-02-13T00:04:28.581Z,28.00
2018-02-13T00:06:56.729Z,28.00
2018-02-13T00:09:25.864Z,27.90
2018-02-13T00:11:54.043Z,27.90
2018-02-13T00:14:22.220Z,27.90
2018-02-13T00:16:51.175Z,27.90
2018-02-13T00:19:19.459Z,27.80
2018-02-13T00:21:47.758Z,27.90
2018-02-13T00:24:15.946Z,27.90
2018-02-13T00:26:44.119Z,27.80
2018-02-13T00:29:12.396Z,27.80
2018-02-13T00:31:40.784Z,27.90
2018-02-13T00:34:08.949Z,27.80
2018-02-13T00:36:37.211Z,27.80
2018-02-13T00:39:05.957Z,27.80
2018-02-13T00:41:34.309Z,27.80
2018-02-13T00:44:02.805Z,27.90
2018-02-13T00:46:31.908Z,27.80
2018-02-13T00:49:00.154Z,27.80
2018-02-13T00:51:28.426Z,27.80
2018-02-13T00:53:56.599Z,27.80
2018-02-13T00:56:24.851Z,27.80
2018-02-13T00:58:53.035Z,27.90
2018-02-13T01:01:21.415Z,27.90
2018-02-13T01:03:49.678Z,27.90
2018-02-13T01:06:17.917Z,27.80
2018-02-13T01:08:46.123Z,27.80
2018-02-13T01:11:14.412Z,27.80
2018-02-13T01:13:43.418Z,27.80
2018-02-13T01:16:12.416Z,27.80
2018-02-13T01:18:40.571Z,27.80
2018-02-13T01:21:08.805Z,28.30
2018-02-13T01:23:36.970Z,27.80
2018-02-13T01:26:05.187Z,27.70
2018-02-13T01:28:33.339Z,27.70
2018-02-13T01:31:01.512Z,27.80
2018-02-13T01:33:30.571Z,27.70
2018-02-13T01:35:59.549Z,27.70
2018-02-13T01:38:28.512Z,27.70
2018-02-13T01:40:57.020Z,27.70
2018-02-13T01:43:26.192Z,27.80
2018-02-13T01:45:54.399Z,27.70
2018-02-13T01:48:25.184Z,27.70
2018-02-13T01:50:53.417Z,27.60
2018-02-13T01:53:22.645Z,27.70
2018-02-13T01:55:50.875Z,27.70
2018-02-13T01:58:19.841Z,27.60
2018-02-13T02:00:48.555Z,27.60
2018-02-13T02:03:17.547Z,27.60
2018-02-13T02:05:46.613Z,27.60
2018-02-13T02:08:14.810Z,28.10
2018-02-13T02:10:43.751Z,27.50
2018-02-13T02:13:12.334Z,27.50
2018-02-13T02:15:40.541Z,27.60
2018-02-13T02:18:08.745Z,28.00
2018-02-13T02:20:38.190Z,27.60
2018-02-13T02:23:06.398Z,27.60
2018-02-13T02:25:34.598Z,27.60
2018-02-13T02:28:03.111Z,27.60
2018-02-13T02:30:31.314Z,27.60
2018-02-13T02:32:59.523Z,27.50
2018-02-13T02:35:28.159Z,27.50
2018-02-13T02:37:56.409Z,27.50
2018-02-13T02:40:24.584Z,27.50
2018-02-13T02:43:05.662Z,27.50
2018-02-13T02:45:34.659Z,27.50
2018-02-13T02:48:03.184Z,27.90
2018-02-13T02:50:32.217Z,27.20
2018-02-13T02:53:00.420Z,27.50
2018-02-13T02:55:28.615Z,27.40
2018-02-13T02:57:56.890Z,27.40
2018-02-13T03:00:25.647Z,27.40
2018-02-13T03:02:53.855Z,27.40
2018-02-13T03:05:22.812Z,27.40
2018-02-13T03:07:51.167Z,27.40
2018-02-13T03:10:19.340Z,27.40
2018-02-13T03:12:47.508Z,27.40
2018-02-13T03:15:15.772Z,27.40
2018-02-13T03:17:44.798Z,27.50
2018-02-13T03:20:12.997Z,27.40
2018-02-13T03:22:41.927Z,27.40
2018-02-13T03:25:11.880Z,27.40
2018-02-13T03:27:40.107Z,27.40
2018-02-13T03:30:09.149Z,27.30
2018-02-13T03:32:37.377Z,27.20
2018-02-13T03:35:06.327Z,27.40
2018-02-13T03:37:34.536Z,27.30
2018-02-13T03:40:03.492Z,27.40
2018-02-13T03:42:31.693Z,27.30
2018-02-13T03:45:00.691Z,27.40
2018-02-13T03:47:29.655Z,27.30
2018-02-13T03:49:57.850Z,27.30
2018-02-13T03:52:27.125Z,27.30
2018-02-13T03:54:55.428Z,27.30
2018-02-13T03:57:24.406Z,27.40
2018-02-13T03:59:53.371Z,27.30
2018-02-13T04:02:21.542Z,27.20
2018-02-13T04:04:49.742Z,27.30
2018-02-13T04:07:17.909Z,27.20
2018-02-13T04:09:46.170Z,27.20
2018-02-13T04:12:14.363Z,27.20
2018-02-13T04:14:42.536Z,27.20
2018-02-13T04:17:10.710Z,27.20
2018-02-13T04:19:39.420Z,27.10
2018-02-13T04:22:08.368Z,27.20
2018-02-13T04:24:36.542Z,27.10
2018-02-13T04:27:04.769Z,27.20
2018-02-13T04:29:32.942Z,27.20
2018-02-13T04:32:01.185Z,27.10
2018-02-13T04:34:29.601Z,27.20
2018-02-13T04:36:57.814Z,27.20
2018-02-13T04:39:26.020Z,27.30
2018-02-13T04:41:54.985Z,27.20
2018-02-13T04:44:23.243Z,27.20
2018-02-13T04:46:51.431Z,27.10
2018-02-13T04:49:19.656Z,27.10
2018-02-13T04:51:47.828Z,27.10
2018-02-13T04:54:16.611Z,27.10
2018-02-13T04:56:44.783Z,27.20
2018-02-13T04:59:12.971Z,27.20
2018-02-13T05:01:41.391Z,27.20
2018-02-13T05:04:09.586Z,27.30
2018-02-13T05:06:38.230Z,27.30
2018-02-13T05:09:06.405Z,27.20
2018-02-13T05:11:34.612Z,27.00
2018-02-13T05:14:02.820Z,27.00
2018-02-13T05:16:31.024Z,27.00
2018-02-13T05:18:59.297Z,26.80
2018-02-13T05:21:27.511Z,26.70
2018-02-13T05:23:56.490Z,26.60
2018-02-13T05:26:24.705Z,26.60
2018-02-13T05:28:52.956Z,26.50
2018-02-13T05:31:21.942Z,26.50
2018-02-13T05:33:50.154Z,26.40
2018-02-13T05:36:18.308Z,26.40
2018-02-13T05:38:47.287Z,26.40
2018-02-13T05:41:16.271Z,26.50
2018-02-13T05:43:45.687Z,26.20
2018-02-13T05:46:15.351Z,26.30
2018-02-13T05:48:44.336Z,26.20
2018-02-13T05:51:12.610Z,26.20
2018-02-13T05:53:41.069Z,26.20
2018-02-13T05:56:09.267Z,26.20
2018-02-13T05:58:37.528Z,26.20
2018-02-13T06:01:05.749Z,26.30
2018-02-13T06:03:34.750Z,26.30
2018-02-13T06:06:03.720Z,26.00
2018-02-13T06:08:31.965Z,26.00
2018-02-13T06:11:00.367Z,26.00
2018-02-13T06:23:20.119Z,26.60
2018-02-13T06:25:50.924Z,26.30
2018-02-13T06:28:27.150Z,26.20
2018-02-13T06:30:59.733Z,26.20
2018-02-13T06:33:28.233Z,26.20
2018-02-13T06:39:18.472Z,26.10
2018-02-13T06:45:53.677Z,26.10
2018-02-13T06:51:50.894Z,25.90
2018-02-13T06:54:19.286Z,25.90
2018-02-13T06:56:48.606Z,25.70
2018-02-13T06:59:17.015Z,25.80
2018-02-13T07:01:45.430Z,25.70
2018-02-13T07:04:18.747Z,25.70
2018-02-13T07:06:47.061Z,25.60
2018-02-13T07:09:16.228Z,25.70
2018-02-13T07:25:18.190Z,25.80
2018-02-13T07:28:26.719Z,25.80
2018-02-13T07:31:02.331Z,25.80
2018-02-13T08:15:59.270Z,25.90
2018-02-13T08:21:24.074Z,25.90
2018-02-13T08:23:55.718Z,25.90
2018-02-13T08:26:25.361Z,25.90
2018-02-13T08:29:03.784Z,25.80
2018-02-13T08:31:36.975Z,25.80
2018-02-13T08:34:09.932Z,25.70
2018-02-13T08:36:39.191Z,25.80
2018-02-13T08:39:08.734Z,25.80
2018-02-13T08:41:39.613Z,25.80
2018-02-13T08:44:11.750Z,25.80
2018-02-13T08:49:31.728Z,25.80
2018-02-13T08:52:00.011Z,25.80
2018-02-13T08:54:29.069Z,25.80
2018-02-13T08:57:05.665Z,25.80
2018-02-13T08:59:33.994Z,25.90
2018-02-13T09:02:02.436Z,25.90
2018-02-13T09:04:30.886Z,25.90
2018-02-13T09:07:01.571Z,25.90
2018-02-13T09:09:30.206Z,25.50
2018-02-13T09:11:58.715Z,25.90
2018-02-13T09:14:27.027Z,25.90
2018-02-13T09:16:55.979Z,25.90
2018-02-13T09:19:24.395Z,25.90
2018-02-13T09:21:52.566Z,26.00
2018-02-13T09:24:20.845Z,26.00
2018-02-13T09:26:50.426Z,26.00
2018-02-13T09:29:19.107Z,26.10
2018-02-13T09:31:48.291Z,26.10
2018-02-13T09:34:17.328Z,26.00
2018-02-13T09:36:46.405Z,26.00
2018-02-13T09:39:15.179Z,26.00
2018-02-13T09:41:43.474Z,26.10
2018-02-13T09:44:11.804Z,26.10
2018-02-13T09:46:41.361Z,26.30
2018-02-13T09:49:10.288Z,26.10
2018-02-13T09:51:39.667Z,26.10
2018-02-13T09:54:07.940Z,26.60
2018-02-13T09:56:41.779Z,26.10
2018-02-13T09:59:23.136Z,26.10
2018-02-13T10:01:51.762Z,26.20
2018-02-13T10:04:24.031Z,26.20
2018-02-13T10:06:58.401Z,26.20
2018-02-13T10:09:43.174Z,26.20
2018-02-13T10:12:20.934Z,26.30
2018-02-13T10:15:22.454Z,26.30
2018-02-13T10:20:28.899Z,26.40
2018-02-13T10:23:02.610Z,26.40
2018-02-13T10:25:33.547Z,26.40
2018-02-13T10:28:05.061Z,26.40
2018-02-13T10:30:34.151Z,26.40
2018-02-13T10:33:03.971Z,26.40
2018-02-13T10:35:32.372Z,26.40
2018-02-13T10:38:00.827Z,26.40
2018-02-13T10:40:31.855Z,26.40
2018-02-13T10:43:00.123Z,26.40
2018-02-13T10:45:28.400Z,26.40
2018-02-13T10:47:56.721Z,26.50
2018-02-13T10:50:25.109Z,26.50
2018-02-13T10:52:56.634Z,26.50
2018-02-13T10:55:25.162Z,26.50
2018-02-13T10:57:54.281Z,26.60
2018-02-13T11:00:22.822Z,26.60
2018-02-13T11:02:51.038Z,26.60
2018-02-13T11:05:19.446Z,26.60
2018-02-13T11:07:48.552Z,27.10
2018-02-13T11:10:16.739Z,26.70
2018-02-13T11:12:46.654Z,26.70
2018-02-13T11:15:15.297Z,26.70
2018-02-13T11:17:43.598Z,26.70
2018-02-13T11:20:11.881Z,26.70
2018-02-13T11:22:41.494Z,26.80
2018-02-13T11:25:10.499Z,26.80
2018-02-13T11:27:39.532Z,26.80
2018-02-13T11:30:08.311Z,26.80
2018-02-13T11:32:36.485Z,26.80
2018-02-13T11:35:04.709Z,26.80
2018-02-13T11:37:32.927Z,26.80
2018-02-13T11:40:02.028Z,26.90
2018-02-13T11:42:31.843Z,26.90
2018-02-13T11:45:00.264Z,26.90
2018-02-13T11:47:31.269Z,26.90
2018-02-13T11:50:01.355Z,26.90
2018-02-13T11:52:32.057Z,26.90
2018-02-13T11:55:02.243Z,26.90
2018-02-13T12:00:31.711Z,26.90
2018-02-13T12:03:01.316Z,27.00
2018-02-13T12:05:29.662Z,27.00
2018-02-13T12:07:59.356Z,27.50
2018-02-13T12:10:34.740Z,27.10
2018-02-13T12:13:04.223Z,27.10
2018-02-13T12:15:45.636Z,27.00
2018-02-13T12:18:14.152Z,27.00
2018-02-13T12:20:44.004Z,27.00
2018-02-13T12:23:14.131Z,27.00
2018-02-13T12:25:44.482Z,27.00
2018-02-13T12:28:13.635Z,27.00
2018-02-13T12:30:42.392Z,27.00
2018-02-13T12:33:10.578Z,27.10
2018-02-13T12:35:38.952Z,27.10
2018-02-13T12:38:07.261Z,27.10
2018-02-13T12:40:35.935Z,27.10
2018-02-13T12:45:57.573Z,27.10
2018-02-13T12:48:25.889Z,27.20
2018-02-13T12:54:14.288Z,27.20
2018-02-13T12:56:42.676Z,27.20
2018-02-13T12:59:11.102Z,27.20
2018-02-13T13:01:40.322Z,27.20
2018-02-13T13:04:09.791Z,27.20
2018-02-13T13:06:38.228Z,27.20
2018-02-13T13:09:06.773Z,27.20
2018-02-13T13:11:35.803Z,27.20
2018-02-13T13:14:04.199Z,27.20
2018-02-13T13:16:33.205Z,27.20
2018-02-13T13:19:01.524Z,27.20
2018-02-13T13:21:29.764Z,27.50
2018-02-13T13:23:58.029Z,27.20
2018-02-13T13:26:26.282Z,27.20
2018-02-13T13:28:54.874Z,27.10
2018-02-13T13:31:25.570Z,27.10
2018-02-13T13:33:54.661Z,27.00
2018-02-13T13:36:23.856Z,27.00
2018-02-13T13:38:52.852Z,27.00
2018-02-13T13:41:21.224Z,26.90
2018-02-13T13:43:51.209Z,26.90
2018-02-13T13:46:19.416Z,26.90
2018-02-13T13:48:49.126Z,26.90
2018-02-13T13:51:18.111Z,26.90
2018-02-13T13:53:48.612Z,26.90
2018-02-13T13:56:16.825Z,26.80
2018-02-13T13:58:45.106Z,26.70
2018-02-13T14:01:13.313Z,26.70
2018-02-13T14:03:41.479Z,26.70
2018-02-13T14:06:09.707Z,26.70
2018-02-13T14:08:38.848Z,26.60
2018-02-13T14:11:07.281Z,26.60
2018-02-13T14:13:36.321Z,26.70
2018-02-13T14:16:05.208Z,26.70
2018-02-13T14:18:36.928Z,27.20
2018-02-13T14:21:06.612Z,26.60
2018-02-13T14:23:34.830Z,26.60
2018-02-13T14:26:03.019Z,26.60
2018-02-13T14:28:31.981Z,26.50
2018-02-13T14:31:01.018Z,26.50
2018-02-13T14:33:29.622Z,26.50
2018-02-13T14:35:57.891Z,26.50
2018-02-13T14:38:26.050Z,26.40
2018-02-13T14:40:54.867Z,26.40
2018-02-13T14:43:23.030Z,26.40
2018-02-13T14:45:51.489Z,26.40
2018-02-13T14:48:21.771Z,26.40
2018-02-13T14:50:50.053Z,26.30
2018-02-13T14:53:18.467Z,26.40
2018-02-13T14:55:46.789Z,26.30
2018-02-13T14:58:15.385Z,26.30
2018-02-13T15:00:43.708Z,26.20
2018-02-13T15:03:12.021Z,26.20
2018-02-13T15:05:40.433Z,26.20
2018-02-13T15:08:08.862Z,26.20
2018-02-13T15:10:37.190Z,26.20
2018-02-13T15:13:05.966Z,26.10
2018-02-13T15:15:34.951Z,26.10
2018-02-13T15:18:08.628Z,26.10
2018-02-13T15:20:38.315Z,26.10
2018-02-13T15:23:06.644Z,26.10
2018-02-13T15:25:34.984Z,26.00
2018-02-13T15:28:03.243Z,26.00
2018-02-13T15:30:32.288Z,26.00
2018-02-13T15:33:00.551Z,26.00
2018-02-13T15:35:29.909Z,26.00
2018-02-13T15:37:58.101Z,25.90
2018-02-13T15:40:26.365Z,26.00
2018-02-13T15:42:54.553Z,25.90
2018-02-13T15:45:22.779Z,26.00
2018-02-13T15:47:51.194Z,26.30
2018-02-13T15:50:19.428Z,25.80
2018-02-13T15:52:47.744Z,25.90
2018-02-13T15:55:15.979Z,25.80
2018-02-13T15:57:44.247Z,25.90
2018-02-13T16:00:12.434Z,25.90
2018-02-13T16:02:47.720Z,25.90
2018-02-13T16:05:15.981Z,26.00
2018-02-13T16:07:44.146Z,26.00
2018-02-13T16:10:12.315Z,25.70
2018-02-13T16:12:41.530Z,26.00
2018-02-13T16:18:21.907Z,25.90
2018-02-13T16:20:58.588Z,25.90
2018-02-13T16:23:26.924Z,26.00
2018-02-13T16:25:55.873Z,26.00
2018-02-13T16:28:30.089Z,26.00
2018-02-13T16:31:00.423Z,26.00
2018-02-13T16:33:29.886Z,25.90
2018-02-13T16:35:59.266Z,26.00
2018-02-13T16:38:27.532Z,26.10
2018-02-13T16:40:57.537Z,26.20
2018-02-13T16:43:27.510Z,26.20
2018-02-13T16:45:56.336Z,26.20
2018-02-13T16:48:25.402Z,26.20
2018-02-13T16:50:53.696Z,26.20
2018-02-13T16:53:21.926Z,26.20
2018-02-13T16:55:56.121Z,26.20
2018-02-13T16:58:24.862Z,26.20
2018-02-13T17:00:53.325Z,26.10
2018-02-13T17:03:21.672Z,26.10
2018-02-13T17:05:49.984Z,26.10
2018-02-13T17:08:18.174Z,26.10
2018-02-13T17:14:01.296Z,26.10
2018-02-13T17:30:13.804Z,26.20
2018-02-13T17:43:27.805Z,26.20
2018-02-13T17:46:00.404Z,26.20
2018-02-13T17:51:35.253Z,26.10
2018-02-13T17:54:03.798Z,26.10
2018-02-13T17:56:32.166Z,26.10
2018-02-13T18:06:34.348Z,26.00
2018-02-13T18:20:35.737Z,26.30
2018-02-13T18:32:05.407Z,25.90
2018-02-13T18:34:35.757Z,26.00
2018-02-13T18:37:06.567Z,26.00
2018-02-13T18:39:35.053Z,26.00
2018-02-13T18:42:15.947Z,25.90
2018-02-13T18:45:44.946Z,25.90
2018-02-13T18:51:18.180Z,25.80
2018-02-13T18:53:57.377Z,25.70
2018-02-13T18:56:26.623Z,25.70
2018-02-13T18:59:36.947Z,25.70
2018-02-13T19:02:05.515Z,25.70
2018-02-13T19:04:34.865Z,25.80
2018-02-13T19:07:36.420Z,25.80
2018-02-13T19:12:41.311Z,25.60
2018-02-13T19:15:11.892Z,26.10
2018-02-13T19:17:40.114Z,25.60
2018-02-13T19:20:09.792Z,25.60
2018-02-13T19:22:38.991Z,25.70
2018-02-13T19:25:11.404Z,25.60
2018-02-13T19:27:39.923Z,25.50
2018-02-13T19:30:08.112Z,25.50
2018-02-13T19:32:36.726Z,25.50
2018-02-13T19:35:06.715Z,25.50
2018-02-13T19:37:35.102Z,25.50
2018-02-13T19:40:03.318Z,25.50
2018-02-13T19:42:32.276Z,25.40
2018-02-13T19:45:00.481Z,25.30
2018-02-13T19:47:29.965Z,25.30
2018-02-13T19:49:59.627Z,25.30
2018-02-13T19:52:29.161Z,25.30
2018-02-13T20:01:21.900Z,25.30
2018-02-13T20:03:50.297Z,25.30
2018-02-13T20:06:19.860Z,25.30
2018-02-13T20:09:03.990Z,25.40
2018-02-13T20:11:35.582Z,25.20
2018-02-13T20:14:04.039Z,25.20
2018-02-13T20:16:33.343Z,25.20
2018-02-13T20:19:02.782Z,25.60
2018-02-13T20:21:33.489Z,25.20
2018-02-13T20:24:02.700Z,25.10
2018-02-13T20:40:35.222Z,25.00
2018-02-13T20:43:08.198Z,25.10
2018-02-13T20:45:36.992Z,25.00
2018-02-13T20:48:06.508Z,24.90
2018-02-13T20:50:35.178Z,24.90
2018-02-13T20:53:26.948Z,24.90
2018-02-13T20:55:55.266Z,24.80
2018-02-13T20:58:25.047Z,24.80
2018-02-13T21:06:16.313Z,24.80
2018-02-13T21:08:45.816Z,25.10
2018-02-13T21:11:16.986Z,25.00
2018-02-13T21:13:47.212Z,25.00
2018-02-13T21:16:18.792Z,24.90
2018-02-13T21:22:33.203Z,24.80
2018-02-13T21:25:36.804Z,24.80
2018-02-13T21:28:05.221Z,24.80
2018-02-13T21:30:59.108Z,24.70
2018-02-13T21:33:27.525Z,24.70
2018-02-13T21:36:01.348Z,24.80
2018-02-13T21:41:41.313Z,24.80
2018-02-13T21:44:10.367Z,24.70
2018-02-13T21:46:40.542Z,24.70
2018-02-13T21:52:12.527Z,24.80
2018-02-13T21:54:46.682Z,24.70
2018-02-13T21:57:22.880Z,24.50
2018-02-13T21:59:57.024Z,24.50
2018-02-13T22:02:26.336Z,24.40
2018-02-13T22:08:05.770Z,24.30
2018-02-13T22:21:39.297Z,24.90
2018-02-13T22:24:11.962Z,25.00
2018-02-13T22:26:40.879Z,24.90
2018-02-13T22:29:18.890Z,25.00
2018-02-13T22:31:47.610Z,24.90
2018-02-13T22:34:17.464Z,24.90
2018-02-13T22:37:03.060Z,24.90
2018-02-13T22:39:31.379Z,24.90
2018-02-13T22:42:00.690Z,24.90
2018-02-13T22:44:29.643Z,24.80
2018-02-13T22:47:04.942Z,24.80
2018-02-13T22:49:33.712Z,24.70
2018-02-13T22:52:03.582Z,24.80
2018-02-13T22:54:40.378Z,24.80
2018-02-13T22:57:12.630Z,24.80
2018-02-13T22:59:42.896Z,24.80
2018-02-13T23:02:13.530Z,24.80
2018-02-13T23:04:47.517Z,24.70
2018-02-13T23:07:20.462Z,24.80
2018-02-13T23:09:48.781Z,24.70
2018-02-13T23:12:20.131Z,24.70
2018-02-13T23:14:48.522Z,24.60
2018-02-13T23:17:39.068Z,24.60
2018-02-13T23:20:08.549Z,24.70
2018-02-13T23:22:48.224Z,24.70
2018-02-13T23:28:25.242Z,24.70
2018-02-13T23:33:29.140Z,24.70
2018-02-13T23:35:58.453Z,24.70
2018-02-13T23:38:29.017Z,24.70
2018-02-13T23:40:59.929Z,24.60
2018-02-13T23:43:28.240Z,24.70
2018-02-13T23:46:00.760Z,24.80
2018-02-13T23:48:31.366Z,24.60
2018-02-13T23:51:19.198Z,24.60
2018-02-13T23:53:49.093Z,24.60
2018-02-13T23:56:17.693Z,24.60
2018-02-13T23:58:47.000Z,24.50
